sensor_id;sensor_type;location;lat;lon;timestamp;P1;durP1;ratioP1;P2;durP2;ratioP2
75772;SDS011;64381;0.000;0.000;2023-06-26T00:00:00;6.03;;;3.73;;
75772;SDS011;64381;0.000;0.000;2023-06-26T00:02:25;6.77;;;3.53;;
75772;SDS011;64381;0.000;0.000;2023-06-26T00:04:50;5.97;;;3.63;;
75772;SDS011;64381;0.000;0.000;2023-06-26T00:07:15;6.40;;;3.70;;
75772;SDS011;64381;0.000;0.000;2023-06-26T00:09:41;6.40;;;3.53;;
75772;SDS011;64381;0.000;0.000;2023-06-26T00:12:06;6.07;;;3.53;;
75772;SDS011;64381;0.000;0.000;2023-06-26T00:14:31;5.63;;;3.50;;
75772;SDS011;64381;0.000;0.000;2023-06-26T00:16:56;5.80;;;3.47;;
75772;SDS011;64381;0.000;0.000;2023-06-26T00:19:22;5.90;;;3.70;;
75772;SDS011;64381;0.000;0.000;2023-06-26T00:21:47;6.07;;;3.50;;
75772;SDS011;64381;0.000;0.000;2023-06-26T00:24:12;6.40;;;3.60;;
75772;SDS011;64381;0.000;0.000;2023-06-26T00:26:41;7.03;;;3.65;;
75772;SDS011;64381;0.000;0.000;2023-06-26T00:29:06;6.50;;;3.80;;
75772;SDS011;64381;0.000;0.000;2023-06-26T00:31:31;5.87;;;3.50;;
75772;SDS011;64381;0.000;0.000;2023-06-26T00:33:56;6.17;;;3.67;;
75772;SDS011;64381;0.000;0.000;2023-06-26T00:36:22;5.97;;;3.47;;
75772;SDS011;64381;0.000;0.000;2023-06-26T00:38:47;6.50;;;3.80;;
75772;SDS011;64381;0.000;0.000;2023-06-26T00:41:12;6.30;;;3.43;;
75772;SDS011;64381;0.000;0.000;2023-06-26T00:43:38;6.60;;;3.73;;
75772;SDS011;64381;0.000;0.000;2023-06-26T00:46:04;6.25;;;3.38;;
75772;SDS011;64381;0.000;0.000;2023-06-26T00:48:29;6.57;;;3.80;;
75772;SDS011;64381;0.000;0.000;2023-06-26T00:50:55;6.07;;;3.53;;
75772;SDS011;64381;0.000;0.000;2023-06-26T00:53:21;5.93;;;3.37;;
75772;SDS011;64381;0.000;0.000;2023-06-26T00:55:46;5.57;;;3.20;;
75772;SDS011;64381;0.000;0.000;2023-06-26T00:58:12;5.72;;;3.53;;
75772;SDS011;64381;0.000;0.000;2023-06-26T01:00:37;5.97;;;3.50;;
75772;SDS011;64381;0.000;0.000;2023-06-26T01:03:02;6.23;;;3.83;;
75772;SDS011;64381;0.000;0.000;2023-06-26T01:05:28;5.80;;;3.60;;
75772;SDS011;64381;0.000;0.000;2023-06-26T01:07:54;6.00;;;3.58;;
75772;SDS011;64381;0.000;0.000;2023-06-26T01:10:19;5.90;;;3.50;;
75772;SDS011;64381;0.000;0.000;2023-06-26T01:12:44;6.60;;;3.70;;
75772;SDS011;64381;0.000;0.000;2023-06-26T01:15:10;6.67;;;3.53;;
75772;SDS011;64381;0.000;0.000;2023-06-26T01:17:36;5.75;;;3.70;;
75772;SDS011;64381;0.000;0.000;2023-06-26T01:20:04;6.15;;;3.58;;
75772;SDS011;64381;0.000;0.000;2023-06-26T01:22:38;6.20;;;3.73;;
75772;SDS011;64381;0.000;0.000;2023-06-26T01:27:57;7.10;;;3.55;;
75772;SDS011;64381;0.000;0.000;2023-06-26T01:30:23;5.90;;;3.53;;
75772;SDS011;64381;0.000;0.000;2023-06-26T01:32:50;6.05;;;3.50;;
75772;SDS011;64381;0.000;0.000;2023-06-26T01:35:15;6.13;;;3.47;;
75772;SDS011;64381;0.000;0.000;2023-06-26T01:37:41;6.70;;;3.60;;
75772;SDS011;64381;0.000;0.000;2023-06-26T01:40:07;6.53;;;3.60;;
75772;SDS011;64381;0.000;0.000;2023-06-26T01:42:33;6.65;;;3.97;;
75772;SDS011;64381;0.000;0.000;2023-06-26T01:45:01;6.13;;;3.45;;
75772;SDS011;64381;0.000;0.000;2023-06-26T01:47:32;4.70;;;2.70;;
75772;SDS011;64381;0.000;0.000;2023-06-26T01:50:03;7.00;;;3.63;;
75772;SDS011;64381;0.000;0.000;2023-06-26T01:52:40;6.43;;;3.42;;
75772;SDS011;64381;0.000;0.000;2023-06-26T01:55:21;5.70;;;3.50;;
75772;SDS011;64381;0.000;0.000;2023-06-26T01:57:54;6.00;;;3.40;;
75772;SDS011;64381;0.000;0.000;2023-06-26T02:00:21;5.85;;;3.42;;
75772;SDS011;64381;0.000;0.000;2023-06-26T02:02:48;5.70;;;3.40;;
75772;SDS011;64381;0.000;0.000;2023-06-26T02:05:14;5.60;;;3.57;;
75772;SDS011;64381;0.000;0.000;2023-06-26T02:07:39;6.88;;;3.92;;
75772;SDS011;64381;0.000;0.000;2023-06-26T02:10:05;6.13;;;3.53;;
75772;SDS011;64381;0.000;0.000;2023-06-26T02:12:30;5.82;;;3.60;;
75772;SDS011;64381;0.000;0.000;2023-06-26T02:14:56;6.30;;;3.70;;
75772;SDS011;64381;0.000;0.000;2023-06-26T02:17:21;5.83;;;3.40;;
75772;SDS011;64381;0.000;0.000;2023-06-26T02:19:46;5.93;;;3.40;;
75772;SDS011;64381;0.000;0.000;2023-06-26T02:22:11;6.10;;;3.70;;
75772;SDS011;64381;0.000;0.000;2023-06-26T02:24:36;5.97;;;3.60;;
75772;SDS011;64381;0.000;0.000;2023-06-26T02:27:02;6.27;;;3.47;;
75772;SDS011;64381;0.000;0.000;2023-06-26T02:29:27;6.47;;;3.80;;
75772;SDS011;64381;0.000;0.000;2023-06-26T02:31:52;6.50;;;3.70;;
75772;SDS011;64381;0.000;0.000;2023-06-26T02:34:17;6.07;;;3.70;;
75772;SDS011;64381;0.000;0.000;2023-06-26T02:36:43;6.30;;;3.43;;
75772;SDS011;64381;0.000;0.000;2023-06-26T02:39:08;6.83;;;3.80;;
75772;SDS011;64381;0.000;0.000;2023-06-26T02:41:33;6.07;;;3.60;;
75772;SDS011;64381;0.000;0.000;2023-06-26T02:43:58;6.47;;;3.50;;
75772;SDS011;64381;0.000;0.000;2023-06-26T02:46:23;5.70;;;3.33;;
75772;SDS011;64381;0.000;0.000;2023-06-26T02:48:49;5.93;;;3.80;;
75772;SDS011;64381;0.000;0.000;2023-06-26T02:51:14;6.13;;;3.57;;
75772;SDS011;64381;0.000;0.000;2023-06-26T02:53:40;6.18;;;3.70;;
75772;SDS011;64381;0.000;0.000;2023-06-26T02:56:05;6.90;;;3.87;;
75772;SDS011;64381;0.000;0.000;2023-06-26T02:58:30;6.60;;;3.53;;
75772;SDS011;64381;0.000;0.000;2023-06-26T03:00:55;6.13;;;3.53;;
75772;SDS011;64381;0.000;0.000;2023-06-26T03:03:20;6.37;;;3.60;;
75772;SDS011;64381;0.000;0.000;2023-06-26T03:05:46;5.53;;;3.33;;
75772;SDS011;64381;0.000;0.000;2023-06-26T03:08:11;6.03;;;3.67;;
75772;SDS011;64381;0.000;0.000;2023-06-26T03:10:36;5.80;;;3.50;;
75772;SDS011;64381;0.000;0.000;2023-06-26T03:13:01;5.57;;;3.50;;
75772;SDS011;64381;0.000;0.000;2023-06-26T03:15:26;5.80;;;3.50;;
75772;SDS011;64381;0.000;0.000;2023-06-26T03:17:52;5.77;;;3.40;;
75772;SDS011;64381;0.000;0.000;2023-06-26T03:20:17;6.20;;;3.67;;
75772;SDS011;64381;0.000;0.000;2023-06-26T03:22:42;6.27;;;3.47;;
75772;SDS011;64381;0.000;0.000;2023-06-26T03:25:07;5.70;;;3.37;;
75772;SDS011;64381;0.000;0.000;2023-06-26T03:27:33;6.03;;;3.50;;
75772;SDS011;64381;0.000;0.000;2023-06-26T03:29:58;5.80;;;3.37;;
75772;SDS011;64381;0.000;0.000;2023-06-26T03:32:23;5.97;;;3.50;;
75772;SDS011;64381;0.000;0.000;2023-06-26T03:34:48;5.83;;;3.43;;
75772;SDS011;64381;0.000;0.000;2023-06-26T03:37:13;6.90;;;4.00;;
75772;SDS011;64381;0.000;0.000;2023-06-26T03:39:39;5.47;;;3.20;;
75772;SDS011;64381;0.000;0.000;2023-06-26T03:42:04;6.00;;;3.50;;
75772;SDS011;64381;0.000;0.000;2023-06-26T03:44:29;5.77;;;3.47;;
75772;SDS011;64381;0.000;0.000;2023-06-26T03:46:55;6.00;;;3.77;;
75772;SDS011;64381;0.000;0.000;2023-06-26T03:49:20;6.47;;;3.40;;
75772;SDS011;64381;0.000;0.000;2023-06-26T03:51:45;6.03;;;3.60;;
75772;SDS011;64381;0.000;0.000;2023-06-26T03:54:10;6.67;;;3.70;;
75772;SDS011;64381;0.000;0.000;2023-06-26T03:56:36;6.87;;;3.77;;
75772;SDS011;64381;0.000;0.000;2023-06-26T03:59:01;5.80;;;3.40;;
75772;SDS011;64381;0.000;0.000;2023-06-26T04:01:27;6.17;;;3.83;;
75772;SDS011;64381;0.000;0.000;2023-06-26T07:07:31;7.88;;;3.70;;
75772;SDS011;64381;0.000;0.000;2023-06-26T07:09:58;7.20;;;3.92;;
75772;SDS011;64381;0.000;0.000;2023-06-26T07:12:24;7.63;;;3.60;;
75772;SDS011;64381;0.000;0.000;2023-06-26T07:14:49;9.13;;;4.20;;
75772;SDS011;64381;0.000;0.000;2023-06-26T07:17:15;9.97;;;4.67;;
75772;SDS011;64381;0.000;0.000;2023-06-26T07:19:40;11.47;;;4.30;;
75772;SDS011;64381;0.000;0.000;2023-06-26T07:22:05;11.60;;;5.20;;
75772;SDS011;64381;0.000;0.000;2023-06-26T07:24:30;10.47;;;4.97;;
75772;SDS011;64381;0.000;0.000;2023-06-26T07:26:55;10.90;;;5.13;;
75772;SDS011;64381;0.000;0.000;2023-06-26T07:29:20;11.27;;;4.90;;
75772;SDS011;64381;0.000;0.000;2023-06-26T07:31:46;14.73;;;5.33;;
75772;SDS011;64381;0.000;0.000;2023-06-26T07:34:11;11.57;;;5.33;;
75772;SDS011;64381;0.000;0.000;2023-06-26T07:36:36;14.80;;;5.80;;
75772;SDS011;64381;0.000;0.000;2023-06-26T07:39:01;14.93;;;5.90;;
75772;SDS011;64381;0.000;0.000;2023-06-26T07:41:27;11.10;;;5.37;;
75772;SDS011;64381;0.000;0.000;2023-06-26T07:43:52;12.47;;;5.60;;
75772;SDS011;64381;0.000;0.000;2023-06-26T07:46:17;15.00;;;5.90;;
75772;SDS011;64381;0.000;0.000;2023-06-26T07:48:43;10.57;;;5.60;;
75772;SDS011;64381;0.000;0.000;2023-06-26T07:51:08;10.87;;;5.60;;
75772;SDS011;64381;0.000;0.000;2023-06-26T07:53:33;12.83;;;5.43;;
75772;SDS011;64381;0.000;0.000;2023-06-26T07:55:58;12.67;;;5.47;;
75772;SDS011;64381;0.000;0.000;2023-06-26T07:58:23;12.30;;;5.70;;
75772;SDS011;64381;0.000;0.000;2023-06-26T08:00:49;12.13;;;5.67;;
75772;SDS011;64381;0.000;0.000;2023-06-26T08:03:14;9.83;;;5.30;;
75772;SDS011;64381;0.000;0.000;2023-06-26T08:05:39;13.33;;;6.03;;
75772;SDS011;64381;0.000;0.000;2023-06-26T08:08:04;9.50;;;5.10;;
75772;SDS011;64381;0.000;0.000;2023-06-26T08:10:29;11.30;;;5.20;;
75772;SDS011;64381;0.000;0.000;2023-06-26T08:12:55;11.97;;;5.37;;
75772;SDS011;64381;0.000;0.000;2023-06-26T08:15:20;12.27;;;5.83;;
75772;SDS011;64381;0.000;0.000;2023-06-26T08:17:45;11.57;;;5.30;;
75772;SDS011;64381;0.000;0.000;2023-06-26T08:20:10;9.97;;;5.13;;
75772;SDS011;64381;0.000;0.000;2023-06-26T08:22:36;12.07;;;6.53;;
75772;SDS011;64381;0.000;0.000;2023-06-26T08:25:02;12.83;;;5.13;;
75772;SDS011;64381;0.000;0.000;2023-06-26T08:27:27;13.57;;;5.10;;
75772;SDS011;64381;0.000;0.000;2023-06-26T08:29:53;10.13;;;5.13;;
75772;SDS011;64381;0.000;0.000;2023-06-26T08:32:18;10.73;;;4.70;;
75772;SDS011;64381;0.000;0.000;2023-06-26T08:34:43;11.70;;;5.10;;
75772;SDS011;64381;0.000;0.000;2023-06-26T08:37:08;10.03;;;4.83;;
75772;SDS011;64381;0.000;0.000;2023-06-26T08:39:33;10.07;;;5.10;;
75772;SDS011;64381;0.000;0.000;2023-06-26T08:41:59;10.03;;;4.70;;
75772;SDS011;64381;0.000;0.000;2023-06-26T08:44:24;11.40;;;5.60;;
75772;SDS011;64381;0.000;0.000;2023-06-26T08:46:49;8.73;;;4.87;;
75772;SDS011;64381;0.000;0.000;2023-06-26T08:49:17;11.10;;;4.87;;
75772;SDS011;64381;0.000;0.000;2023-06-26T08:51:49;12.23;;;5.13;;
75772;SDS011;64381;0.000;0.000;2023-06-26T08:54:17;10.45;;;5.30;;
75772;SDS011;64381;0.000;0.000;2023-06-26T08:56:52;9.70;;;5.17;;
75772;SDS011;64381;0.000;0.000;2023-06-26T08:59:17;8.93;;;4.93;;
75772;SDS011;64381;0.000;0.000;2023-06-26T09:01:43;9.80;;;5.40;;
75772;SDS011;64381;0.000;0.000;2023-06-26T09:04:08;12.03;;;4.97;;
75772;SDS011;64381;0.000;0.000;2023-06-26T09:06:34;8.50;;;4.57;;
75772;SDS011;64381;0.000;0.000;2023-06-26T09:08:59;11.17;;;5.03;;
75772;SDS011;64381;0.000;0.000;2023-06-26T09:11:24;13.03;;;5.40;;
75772;SDS011;64381;0.000;0.000;2023-06-26T09:13:49;9.13;;;4.77;;
75772;SDS011;64381;0.000;0.000;2023-06-26T09:16:15;8.48;;;4.82;;
75772;SDS011;64381;0.000;0.000;2023-06-26T09:18:40;9.80;;;5.00;;
75772;SDS011;64381;0.000;0.000;2023-06-26T09:21:07;9.87;;;4.97;;
75772;SDS011;64381;0.000;0.000;2023-06-26T09:23:34;9.88;;;5.50;;
75772;SDS011;64381;0.000;0.000;2023-06-26T09:25:59;11.15;;;4.85;;
75772;SDS011;64381;0.000;0.000;2023-06-26T09:28:27;8.43;;;4.83;;
75772;SDS011;64381;0.000;0.000;2023-06-26T09:30:53;8.18;;;4.72;;
75772;SDS011;64381;0.000;0.000;2023-06-26T09:33:19;8.40;;;4.67;;
75772;SDS011;64381;0.000;0.000;2023-06-26T09:35:46;9.32;;;4.80;;
75772;SDS011;64381;0.000;0.000;2023-06-26T09:38:12;9.38;;;4.68;;
75772;SDS011;64381;0.000;0.000;2023-06-26T09:40:38;10.27;;;4.80;;
75772;SDS011;64381;0.000;0.000;2023-06-26T09:43:06;8.63;;;4.72;;
75772;SDS011;64381;0.000;0.000;2023-06-26T09:45:35;9.13;;;4.97;;
75772;SDS011;64381;0.000;0.000;2023-06-26T09:48:01;9.13;;;4.67;;
75772;SDS011;64381;0.000;0.000;2023-06-26T09:50:26;9.53;;;4.47;;
75772;SDS011;64381;0.000;0.000;2023-06-26T09:52:51;10.33;;;4.97;;
75772;SDS011;64381;0.000;0.000;2023-06-26T09:55:17;9.57;;;4.43;;
75772;SDS011;64381;0.000;0.000;2023-06-26T09:57:44;8.10;;;4.73;;
75772;SDS011;64381;0.000;0.000;2023-06-26T10:00:12;8.95;;;5.22;;
75772;SDS011;64381;0.000;0.000;2023-06-26T10:02:38;8.05;;;4.60;;
75772;SDS011;64381;0.000;0.000;2023-06-26T10:05:03;10.43;;;5.03;;
75772;SDS011;64381;0.000;0.000;2023-06-26T10:07:29;8.70;;;4.47;;
75772;SDS011;64381;0.000;0.000;2023-06-26T10:09:54;8.67;;;4.50;;
75772;SDS011;64381;0.000;0.000;2023-06-26T10:12:26;7.78;;;4.50;;
75772;SDS011;64381;0.000;0.000;2023-06-26T10:14:53;8.68;;;4.30;;
75772;SDS011;64381;0.000;0.000;2023-06-26T10:17:19;7.70;;;4.30;;
75772;SDS011;64381;0.000;0.000;2023-06-26T10:19:45;8.32;;;5.18;;
75772;SDS011;64381;0.000;0.000;2023-06-26T10:22:15;7.47;;;4.18;;
75772;SDS011;64381;0.000;0.000;2023-06-26T10:24:42;7.35;;;4.35;;
75772;SDS011;64381;0.000;0.000;2023-06-26T10:27:13;9.40;;;4.85;;
75772;SDS011;64381;0.000;0.000;2023-06-26T10:29:42;9.40;;;4.57;;
75772;SDS011;64381;0.000;0.000;2023-06-26T10:32:11;10.20;;;4.80;;
75772;SDS011;64381;0.000;0.000;2023-06-26T10:34:38;7.30;;;4.18;;
75772;SDS011;64381;0.000;0.000;2023-06-26T10:37:03;8.60;;;4.40;;
75772;SDS011;64381;0.000;0.000;2023-06-26T10:39:50;7.97;;;4.40;;
75772;SDS011;64381;0.000;0.000;2023-06-26T10:42:16;8.65;;;4.50;;
75772;SDS011;64381;0.000;0.000;2023-06-26T10:44:42;9.32;;;4.82;;
75772;SDS011;64381;0.000;0.000;2023-06-26T10:47:08;8.10;;;4.20;;
75772;SDS011;64381;0.000;0.000;2023-06-26T10:49:35;9.37;;;4.50;;
75772;SDS011;64381;0.000;0.000;2023-06-26T10:52:01;8.07;;;4.22;;
75772;SDS011;64381;0.000;0.000;2023-06-26T10:54:30;7.90;;;4.40;;
75772;SDS011;64381;0.000;0.000;2023-06-26T10:56:56;7.32;;;4.40;;
75772;SDS011;64381;0.000;0.000;2023-06-26T10:59:23;7.90;;;4.37;;
75772;SDS011;64381;0.000;0.000;2023-06-26T11:02:08;8.63;;;4.38;;
75772;SDS011;64381;0.000;0.000;2023-06-26T11:04:43;7.68;;;4.00;;
75772;SDS011;64381;0.000;0.000;2023-06-26T11:07:20;7.60;;;4.40;;
75772;SDS011;64381;0.000;0.000;2023-06-26T11:09:53;7.77;;;4.00;;
75772;SDS011;64381;0.000;0.000;2023-06-26T11:12:40;7.18;;;4.43;;
75772;SDS011;64381;0.000;0.000;2023-06-26T11:15:13;8.73;;;4.50;;
75772;SDS011;64381;0.000;0.000;2023-06-26T11:17:40;8.60;;;4.38;;
75772;SDS011;64381;0.000;0.000;2023-06-26T11:20:07;7.72;;;4.20;;
75772;SDS011;64381;0.000;0.000;2023-06-26T11:22:37;7.83;;;4.17;;
75772;SDS011;64381;0.000;0.000;2023-06-26T11:25:03;7.35;;;4.00;;
75772;SDS011;64381;0.000;0.000;2023-06-26T11:27:37;6.65;;;3.80;;
75772;SDS011;64381;0.000;0.000;2023-06-26T11:30:02;7.43;;;4.00;;
75772;SDS011;64381;0.000;0.000;2023-06-26T11:32:28;7.30;;;3.97;;
75772;SDS011;64381;0.000;0.000;2023-06-26T11:34:53;7.00;;;4.00;;
75772;SDS011;64381;0.000;0.000;2023-06-26T11:37:19;7.53;;;3.90;;
75772;SDS011;64381;0.000;0.000;2023-06-26T11:39:45;7.53;;;3.85;;
75772;SDS011;64381;0.000;0.000;2023-06-26T11:42:11;8.17;;;4.10;;
75772;SDS011;64381;0.000;0.000;2023-06-26T11:44:42;7.93;;;4.03;;
75772;SDS011;64381;0.000;0.000;2023-06-26T11:47:07;7.25;;;3.95;;
75772;SDS011;64381;0.000;0.000;2023-06-26T11:49:33;6.33;;;3.63;;
75772;SDS011;64381;0.000;0.000;2023-06-26T11:51:58;6.93;;;4.27;;
75772;SDS011;64381;0.000;0.000;2023-06-26T11:54:24;6.90;;;4.30;;
75772;SDS011;64381;0.000;0.000;2023-06-26T11:56:57;7.00;;;4.18;;
75772;SDS011;64381;0.000;0.000;2023-06-26T11:59:24;7.03;;;3.92;;
75772;SDS011;64381;0.000;0.000;2023-06-26T12:01:56;6.53;;;3.70;;
75772;SDS011;64381;0.000;0.000;2023-06-26T12:04:21;7.37;;;3.90;;
75772;SDS011;64381;0.000;0.000;2023-06-26T12:06:47;6.17;;;3.73;;
75772;SDS011;64381;0.000;0.000;2023-06-26T12:09:14;7.30;;;4.15;;
75772;SDS011;64381;0.000;0.000;2023-06-26T12:11:42;7.53;;;3.80;;
75772;SDS011;64381;0.000;0.000;2023-06-26T12:14:09;6.80;;;3.88;;
75772;SDS011;64381;0.000;0.000;2023-06-26T12:16:35;7.72;;;3.80;;
75772;SDS011;64381;0.000;0.000;2023-06-26T12:19:02;7.60;;;3.55;;
75772;SDS011;64381;0.000;0.000;2023-06-26T12:24:02;6.28;;;3.60;;
75772;SDS011;64381;0.000;0.000;2023-06-26T12:26:28;6.80;;;3.90;;
75772;SDS011;64381;0.000;0.000;2023-06-26T12:29:00;7.67;;;3.90;;
75772;SDS011;64381;0.000;0.000;2023-06-26T12:31:27;7.20;;;3.95;;
75772;SDS011;64381;0.000;0.000;2023-06-26T12:33:52;6.50;;;3.50;;
75772;SDS011;64381;0.000;0.000;2023-06-26T12:36:17;6.63;;;3.90;;
75772;SDS011;64381;0.000;0.000;2023-06-26T12:38:45;6.97;;;3.90;;
75772;SDS011;64381;0.000;0.000;2023-06-26T12:41:14;7.68;;;4.07;;
75772;SDS011;64381;0.000;0.000;2023-06-26T12:43:40;7.07;;;3.97;;
75772;SDS011;64381;0.000;0.000;2023-06-26T12:46:05;7.23;;;4.10;;
75772;SDS011;64381;0.000;0.000;2023-06-26T12:48:41;7.00;;;3.67;;
75772;SDS011;64381;0.000;0.000;2023-06-26T12:51:09;6.18;;;3.65;;
75772;SDS011;64381;0.000;0.000;2023-06-26T12:53:35;7.13;;;3.78;;
75772;SDS011;64381;0.000;0.000;2023-06-26T12:56:01;6.63;;;3.50;;
75772;SDS011;64381;0.000;0.000;2023-06-26T12:58:26;6.60;;;3.60;;
75772;SDS011;64381;0.000;0.000;2023-06-26T13:00:51;6.93;;;3.70;;
75772;SDS011;64381;0.000;0.000;2023-06-26T13:03:16;6.60;;;3.70;;
75772;SDS011;64381;0.000;0.000;2023-06-26T13:05:41;7.10;;;3.57;;
75772;SDS011;64381;0.000;0.000;2023-06-26T13:08:07;6.53;;;3.80;;
75772;SDS011;64381;0.000;0.000;2023-06-26T13:10:32;6.53;;;3.80;;
75772;SDS011;64381;0.000;0.000;2023-06-26T13:12:57;6.80;;;3.90;;
75772;SDS011;64381;0.000;0.000;2023-06-26T13:15:23;6.27;;;3.67;;
75772;SDS011;64381;0.000;0.000;2023-06-26T13:17:48;6.57;;;3.63;;
75772;SDS011;64381;0.000;0.000;2023-06-26T13:20:13;6.40;;;3.47;;
75772;SDS011;64381;0.000;0.000;2023-06-26T13:22:38;7.40;;;3.73;;
75772;SDS011;64381;0.000;0.000;2023-06-26T13:25:03;6.40;;;3.80;;
75772;SDS011;64381;0.000;0.000;2023-06-26T13:27:29;5.70;;;3.35;;
75772;SDS011;64381;0.000;0.000;2023-06-26T13:29:54;6.60;;;3.60;;
75772;SDS011;64381;0.000;0.000;2023-06-26T13:32:19;6.33;;;3.43;;
75772;SDS011;64381;0.000;0.000;2023-06-26T13:34:44;6.67;;;3.60;;
75772;SDS011;64381;0.000;0.000;2023-06-26T13:37:10;6.10;;;3.40;;
75772;SDS011;64381;0.000;0.000;2023-06-26T13:39:35;6.93;;;4.00;;
75772;SDS011;64381;0.000;0.000;2023-06-26T13:42:00;6.50;;;3.60;;
75772;SDS011;64381;0.000;0.000;2023-06-26T13:44:25;5.93;;;3.13;;
75772;SDS011;64381;0.000;0.000;2023-06-26T13:46:50;6.00;;;3.60;;
75772;SDS011;64381;0.000;0.000;2023-06-26T13:49:16;7.20;;;3.50;;
75772;SDS011;64381;0.000;0.000;2023-06-26T13:51:41;6.27;;;3.80;;
75772;SDS011;64381;0.000;0.000;2023-06-26T13:54:06;6.27;;;3.40;;
75772;SDS011;64381;0.000;0.000;2023-06-26T13:56:31;6.20;;;3.43;;
75772;SDS011;64381;0.000;0.000;2023-06-26T13:58:56;6.33;;;3.60;;
75772;SDS011;64381;0.000;0.000;2023-06-26T14:01:22;6.00;;;3.20;;
75772;SDS011;64381;0.000;0.000;2023-06-26T14:03:47;6.30;;;3.13;;
75772;SDS011;64381;0.000;0.000;2023-06-26T14:06:12;5.57;;;3.07;;
75772;SDS011;64381;0.000;0.000;2023-06-26T14:08:37;5.87;;;3.50;;
75772;SDS011;64381;0.000;0.000;2023-06-26T14:11:02;6.87;;;3.43;;
75772;SDS011;64381;0.000;0.000;2023-06-26T14:13:28;5.97;;;3.40;;
75772;SDS011;64381;0.000;0.000;2023-06-26T14:15:53;6.13;;;3.33;;
75772;SDS011;64381;0.000;0.000;2023-06-26T14:18:18;5.80;;;3.20;;
75772;SDS011;64381;0.000;0.000;2023-06-26T14:20:43;5.83;;;3.30;;
75772;SDS011;64381;0.000;0.000;2023-06-26T14:23:08;5.60;;;3.20;;
75772;SDS011;64381;0.000;0.000;2023-06-26T14:25:34;6.10;;;3.40;;
75772;SDS011;64381;0.000;0.000;2023-06-26T14:27:59;6.27;;;3.60;;
75772;SDS011;64381;0.000;0.000;2023-06-26T14:30:24;6.17;;;3.37;;
75772;SDS011;64381;0.000;0.000;2023-06-26T14:32:50;6.03;;;3.40;;
75772;SDS011;64381;0.000;0.000;2023-06-26T14:35:15;5.53;;;3.23;;
75772;SDS011;64381;0.000;0.000;2023-06-26T14:37:40;7.10;;;3.80;;
75772;SDS011;64381;0.000;0.000;2023-06-26T14:40:06;5.95;;;3.30;;
75772;SDS011;64381;0.000;0.000;2023-06-26T14:42:32;5.63;;;3.50;;
75772;SDS011;64381;0.000;0.000;2023-06-26T14:44:57;6.17;;;3.60;;
75772;SDS011;64381;0.000;0.000;2023-06-26T14:47:22;5.87;;;3.60;;
75772;SDS011;64381;0.000;0.000;2023-06-26T14:49:48;5.70;;;3.40;;
75772;SDS011;64381;0.000;0.000;2023-06-26T14:52:13;5.77;;;3.33;;
75772;SDS011;64381;0.000;0.000;2023-06-26T14:54:38;6.07;;;3.63;;
75772;SDS011;64381;0.000;0.000;2023-06-26T14:57:04;5.88;;;3.42;;
75772;SDS011;64381;0.000;0.000;2023-06-26T14:59:29;5.40;;;3.20;;
75772;SDS011;64381;0.000;0.000;2023-06-26T15:01:55;6.40;;;3.60;;
75772;SDS011;64381;0.000;0.000;2023-06-26T15:04:20;5.57;;;3.30;;
75772;SDS011;64381;0.000;0.000;2023-06-26T15:06:45;5.35;;;3.10;;
75772;SDS011;64381;0.000;0.000;2023-06-26T15:09:10;5.47;;;3.33;;
75772;SDS011;64381;0.000;0.000;2023-06-26T15:11:36;6.70;;;3.55;;
75772;SDS011;64381;0.000;0.000;2023-06-26T15:14:01;6.57;;;3.17;;
75772;SDS011;64381;0.000;0.000;2023-06-26T15:16:26;6.80;;;3.50;;
75772;SDS011;64381;0.000;0.000;2023-06-26T15:18:51;5.77;;;3.23;;
75772;SDS011;64381;0.000;0.000;2023-06-26T15:21:17;5.43;;;3.10;;
75772;SDS011;64381;0.000;0.000;2023-06-26T15:23:42;5.80;;;3.10;;
75772;SDS011;64381;0.000;0.000;2023-06-26T15:26:07;6.50;;;3.40;;
75772;SDS011;64381;0.000;0.000;2023-06-26T15:28:32;6.03;;;3.30;;
75772;SDS011;64381;0.000;0.000;2023-06-26T15:30:58;5.27;;;2.93;;
75772;SDS011;64381;0.000;0.000;2023-06-26T15:33:24;5.70;;;3.20;;
75772;SDS011;64381;0.000;0.000;2023-06-26T15:35:49;5.80;;;3.10;;
75772;SDS011;64381;0.000;0.000;2023-06-26T15:38:14;6.10;;;3.10;;
75772;SDS011;64381;0.000;0.000;2023-06-26T15:40:40;5.37;;;3.10;;
75772;SDS011;64381;0.000;0.000;2023-06-26T15:43:05;6.07;;;3.37;;
75772;SDS011;64381;0.000;0.000;2023-06-26T15:45:30;5.60;;;3.40;;
75772;SDS011;64381;0.000;0.000;2023-06-26T15:47:55;5.73;;;3.10;;
75772;SDS011;64381;0.000;0.000;2023-06-26T15:50:21;4.90;;;3.00;;
75772;SDS011;64381;0.000;0.000;2023-06-26T15:52:46;5.63;;;3.33;;
75772;SDS011;64381;0.000;0.000;2023-06-26T15:55:12;5.75;;;3.30;;
75772;SDS011;64381;0.000;0.000;2023-06-26T15:57:37;6.03;;;3.30;;
75772;SDS011;64381;0.000;0.000;2023-06-26T16:00:03;5.67;;;3.37;;
75772;SDS011;64381;0.000;0.000;2023-06-26T16:02:29;5.53;;;3.20;;
75772;SDS011;64381;0.000;0.000;2023-06-26T16:04:54;6.40;;;3.63;;
75772;SDS011;64381;0.000;0.000;2023-06-26T16:07:20;5.10;;;3.07;;
75772;SDS011;64381;0.000;0.000;2023-06-26T16:09:45;6.47;;;3.47;;
75772;SDS011;64381;0.000;0.000;2023-06-26T16:12:10;5.43;;;3.13;;
75772;SDS011;64381;0.000;0.000;2023-06-26T16:14:35;5.10;;;3.03;;
75772;SDS011;64381;0.000;0.000;2023-06-26T16:17:00;5.97;;;3.50;;
75772;SDS011;64381;0.000;0.000;2023-06-26T16:19:26;5.40;;;3.20;;
75772;SDS011;64381;0.000;0.000;2023-06-26T16:21:51;6.10;;;3.30;;
75772;SDS011;64381;0.000;0.000;2023-06-26T16:24:16;5.40;;;3.10;;
75772;SDS011;64381;0.000;0.000;2023-06-26T16:26:42;5.90;;;3.57;;
75772;SDS011;64381;0.000;0.000;2023-06-26T16:29:07;5.80;;;3.57;;
75772;SDS011;64381;0.000;0.000;2023-06-26T16:31:32;5.47;;;3.33;;
75772;SDS011;64381;0.000;0.000;2023-06-26T16:33:57;6.10;;;3.47;;
75772;SDS011;64381;0.000;0.000;2023-06-26T16:36:22;6.73;;;3.47;;
75772;SDS011;64381;0.000;0.000;2023-06-26T16:38:48;6.87;;;3.30;;
75772;SDS011;64381;0.000;0.000;2023-06-26T16:41:13;6.90;;;3.50;;
75772;SDS011;64381;0.000;0.000;2023-06-26T16:43:38;6.00;;;3.40;;
75772;SDS011;64381;0.000;0.000;2023-06-26T16:46:03;6.60;;;3.60;;
75772;SDS011;64381;0.000;0.000;2023-06-26T16:48:29;6.83;;;3.43;;
75772;SDS011;64381;0.000;0.000;2023-06-26T16:50:54;5.60;;;3.50;;
75772;SDS011;64381;0.000;0.000;2023-06-26T16:53:19;7.17;;;3.37;;
75772;SDS011;64381;0.000;0.000;2023-06-26T16:55:44;5.83;;;3.03;;
75772;SDS011;64381;0.000;0.000;2023-06-26T16:58:10;5.70;;;3.37;;
75772;SDS011;64381;0.000;0.000;2023-06-26T17:00:35;5.47;;;3.40;;
75772;SDS011;64381;0.000;0.000;2023-06-26T17:03:04;6.63;;;3.53;;
75772;SDS011;64381;0.000;0.000;2023-06-26T17:05:30;6.03;;;3.40;;
75772;SDS011;64381;0.000;0.000;2023-06-26T17:07:55;6.47;;;3.70;;
75772;SDS011;64381;0.000;0.000;2023-06-26T17:10:20;5.33;;;3.30;;
75772;SDS011;64381;0.000;0.000;2023-06-26T17:12:45;5.90;;;3.63;;
75772;SDS011;64381;0.000;0.000;2023-06-26T17:15:11;5.53;;;3.40;;
75772;SDS011;64381;0.000;0.000;2023-06-26T17:17:36;6.57;;;3.70;;
75772;SDS011;64381;0.000;0.000;2023-06-26T17:20:02;5.53;;;3.50;;
75772;SDS011;64381;0.000;0.000;2023-06-26T17:22:27;5.70;;;3.63;;
75772;SDS011;64381;0.000;0.000;2023-06-26T17:24:52;6.60;;;3.80;;
75772;SDS011;64381;0.000;0.000;2023-06-26T17:27:18;5.40;;;3.20;;
75772;SDS011;64381;0.000;0.000;2023-06-26T17:29:43;5.72;;;3.40;;
75772;SDS011;64381;0.000;0.000;2023-06-26T17:32:08;5.33;;;3.27;;
75772;SDS011;64381;0.000;0.000;2023-06-26T17:34:34;5.73;;;3.33;;
75772;SDS011;64381;0.000;0.000;2023-06-26T17:37:00;5.67;;;3.67;;
75772;SDS011;64381;0.000;0.000;2023-06-26T17:39:25;5.93;;;3.08;;
75772;SDS011;64381;0.000;0.000;2023-06-26T17:41:51;5.83;;;3.30;;
75772;SDS011;64381;0.000;0.000;2023-06-26T17:44:17;5.75;;;3.70;;
75772;SDS011;64381;0.000;0.000;2023-06-26T17:46:42;5.87;;;3.27;;
75772;SDS011;64381;0.000;0.000;2023-06-26T17:49:07;5.80;;;3.33;;
75772;SDS011;64381;0.000;0.000;2023-06-26T17:51:32;5.87;;;3.37;;
75772;SDS011;64381;0.000;0.000;2023-06-26T17:53:58;5.83;;;3.43;;
75772;SDS011;64381;0.000;0.000;2023-06-26T17:56:23;5.70;;;3.40;;
75772;SDS011;64381;0.000;0.000;2023-06-26T17:58:49;5.73;;;3.43;;
75772;SDS011;64381;0.000;0.000;2023-06-26T18:01:14;6.00;;;3.47;;